Portada
METAR-TAF:

METAR-TAF

Aeroports :

Cayo Coco, Cuba

latitud: 22-27-40N, longitud: 078-19-42W, altitud: 4 m

Observació

L'informe es va fer fa 40 minuts, a les 00:50 UTC
Vent 7 kt del Est, variant entre Est/Nord-Est i Est/Sud-Est
Temperatura 25°C
Humitat 83%
Pressió 1018 hPa
Visibilitat: 9000 m
Cel ennuvolat a una alçada de 2000 ft

METAR: MUCC 030050Z 10007KT 060V120 9000 BKN020 25/22 Q1018

Hora: 20:30 (01:30 UTC)

Pronòstic

L'informe es va fer fa 2 hores i 30 minuts, a les 23:00 UTC
Pronòstic vàlid del 03 a les 00 UTC al 03 a les 24 UTC
Vent 9 kt del Est/Sud-Est
Visibilitat: 9000 m
Núvols disperses a una alçada de 2000 ft
Cel ennuvolat a una alçada de 15000 ft
Temporalment
l' 03 a les 04 UTC al 03 a les 13 UTC
Cel ennuvolat a una alçada de 1800 ft

TAF: MUCC 022300Z 0300/0324 11009KT 9000 SCT020 BKN150 TEMPO 0304/0313 BKN018

Observacions i pronòstics meteorològics de més de 4000 aeroports (METAR i TAF).

Les estacions disponibles són els punts grocs i vermells al mapa.

Posi el ratolí al punt desitjat per veure el nom de l'estació.

Feu clic per veure les observacions i els pronòstics meteorològics.

Per canviar el mapa: feu clic els botons verds amb una creu de color negre per apropar; al botó verd amb un guió per allunyar la imatge; o en les fletxes verdes per a mapes adjacents.


METAR-TAF: